Time;durP1;ratioP1;P1;durP2;ratioP2;P2;SDS_P1;SDS_P2;PMS_P1;PMS_P2;Temp;Humidity;BMP_temperature;BMP_pressure;BME280_temperature;BME280_humidity;BME280_pressure;Samples;Min_cycle;Max_cycle;Signal;HPM_P1;HPM_P2
2022/01/19 00:01:35;;;;;;;3.08;2.30;;;;;;;;;;5076305;28;20201;-81
2022/01/19 00:04:03;;;;;;;4.40;2.92;;;;;;;;;;5075810;28;20217;-80
2022/01/19 00:06:32;;;;;;;2.47;2.28;;;;;;;;;;5075506;28;20712;-81
2022/01/19 00:08:59;;;;;;;2.00;1.80;;;;;;;;;;5075994;28;20205;-80
2022/01/19 00:11:26;;;;;;;5.82;2.38;;;;;;;;;;5076319;28;20697;-82
2022/01/19 00:13:54;;;;;;;3.20;2.67;;;;;;;;;;5076078;28;20217;-80
2022/01/19 00:16:21;;;;;;;5.65;2.00;;;;;;;;;;5075988;28;20242;-81
2022/01/19 00:18:49;;;;;;;2.40;2.15;;;;;;;;;;5075930;28;20752;-81
2022/01/19 00:21:16;;;;;;;2.58;1.98;;;;;;;;;;5075717;28;20847;-80
2022/01/19 00:23:45;;;;;;;3.30;2.25;;;;;;;;;;5075662;28;20708;-80
2022/01/19 00:26:12;;;;;;;4.18;2.10;;;;;;;;;;5075159;28;20278;-80
2022/01/19 00:28:39;;;;;;;1.80;1.70;;;;;;;;;;5075395;28;20205;-80
2022/01/19 00:31:07;;;;;;;2.83;2.53;;;;;;;;;;5075827;28;20235;-81
2022/01/19 00:33:34;;;;;;;2.95;2.10;;;;;;;;;;5074668;28;20221;-80
2022/01/19 00:36:01;;;;;;;4.20;2.17;;;;;;;;;;5075479;28;20275;-82
2022/01/19 00:38:28;;;;;;;2.30;2.10;;;;;;;;;;5075571;28;20205;-80
2022/01/19 00:40:57;;;;;;;4.47;2.45;;;;;;;;;;5075568;28;20208;-80
2022/01/19 00:43:25;;;;;;;2.53;2.33;;;;;;;;;;5075152;28;20271;-82
2022/01/19 00:45:52;;;;;;;5.47;2.85;;;;;;;;;;5074860;28;20220;-80
2022/01/19 00:48:19;;;;;;;3.28;1.90;;;;;;;;;;5075764;28;20270;-80
2022/01/19 00:50:47;;;;;;;2.70;2.50;;;;;;;;;;5074422;28;20193;-80
2022/01/19 00:53:14;;;;;;;2.90;1.95;;;;;;;;;;5075308;28;20221;-81
2022/01/19 00:55:41;;;;;;;2.88;2.30;;;;;;;;;;5075537;28;20201;-81
2022/01/19 00:58:10;;;;;;;2.35;2.15;;;;;;;;;;5075171;28;20668;-80
2022/01/19 01:00:38;;;;;;;1.70;1.60;;;;;;;;;;5074711;28;20201;-81
2022/01/19 01:03:05;;;;;;;2.20;1.80;;;;;;;;;;5074708;28;20205;-80
2022/01/19 01:05:33;;;;;;;2.20;1.60;;;;;;;;;;5074794;28;20197;-81
2022/01/19 01:08:00;;;;;;;2.60;2.00;;;;;;;;;;5074169;28;20228;-80
2022/01/19 01:10:29;;;;;;;2.58;2.38;;;;;;;;;;5075120;28;20617;-82
2022/01/19 01:13:16;;;;;;;1.98;1.88;;;;;;;;;;5074854;28;20654;-81
2022/01/19 01:15:48;;;;;;;2.60;2.08;;;;;;;;;;5074723;28;20275;-80
2022/01/19 01:18:18;;;;;;;2.03;1.92;;;;;;;;;;5075312;28;20188;-83
2022/01/19 01:20:48;;;;;;;2.60;2.40;;;;;;;;;;5074781;28;20201;-81
2022/01/19 01:23:15;;;;;;;3.10;2.80;;;;;;;;;;5074324;28;20278;-80
2022/01/19 01:25:43;;;;;;;2.83;2.50;;;;;;;;;;5074498;28;20730;-80
2022/01/19 01:28:11;;;;;;;3.00;2.72;;;;;;;;;;5074246;28;20692;-80
2022/01/19 01:30:38;;;;;;;3.10;2.80;;;;;;;;;;5073954;28;20205;-81
2022/01/19 01:33:07;;;;;;;3.25;2.95;;;;;;;;;;5073838;28;20246;-81
2022/01/19 01:35:35;;;;;;;6.00;3.90;;;;;;;;;;5073845;28;20209;-80
2022/01/19 01:38:02;;;;;;;3.58;3.00;;;;;;;;;;5074690;28;20205;-81
2022/01/19 01:40:32;;;;;;;3.65;3.35;;;;;;;;;;5073871;28;20208;-80
2022/01/19 01:43:01;;;;;;;3.83;3.53;;;;;;;;;;5074118;28;20262;-80
2022/01/19 01:45:31;;;;;;;3.28;2.97;;;;;;;;;;5073911;28;20677;-82
2022/01/19 01:48:06;;;;;;;4.40;3.17;;;;;;;;;;5074509;28;20598;-81
2022/01/19 01:53:27;;;;;;;4.40;4.00;;;;;;;;;;5073542;28;20591;-81
2022/01/19 01:55:59;;;;;;;3.53;3.22;;;;;;;;;;5074064;28;20258;-80
2022/01/19 01:58:27;;;;;;;4.03;3.47;;;;;;;;;;5074172;28;20200;-81
2022/01/19 02:00:56;;;;;;;3.85;2.90;;;;;;;;;;5074089;28;20207;-81
2022/01/19 02:03:24;;;;;;;3.90;3.53;;;;;;;;;;5073251;28;20221;-80
2022/01/19 02:06:20;;;;;;;2.83;2.63;;;;;;;;;;5073626;28;20205;-80
2022/01/19 02:08:54;;;;;;;4.10;3.35;;;;;;;;;;5073753;28;20571;-80
2022/01/19 02:15:47;;;;;;;4.07;3.67;;;;;;;;;;5073278;28;20201;-80
2022/01/19 02:23:02;;;;;;;3.00;2.80;;;;;;;;;;5073382;28;20204;-80
2022/01/19 02:25:36;;;;;;;4.05;3.22;;;;;;;;;;5073295;28;20205;-81
2022/01/19 02:41:51;;;;;;;3.13;2.92;;;;;;;;;;5073227;28;20839;-81
2022/01/19 02:44:33;;;;;;;3.72;3.30;;;;;;;;;;5073196;28;20231;-81
2022/01/19 02:49:46;;;;;;;3.80;3.50;;;;;;;;;;5073622;28;20208;-81
2022/01/19 02:52:16;;;;;;;3.47;3.17;;;;;;;;;;5073255;28;20204;-80
2022/01/19 02:54:44;;;;;;;3.42;3.15;;;;;;;;;;5073167;28;20779;-80
2022/01/19 02:57:13;;;;;;;3.88;3.45;;;;;;;;;;5073346;28;20262;-80
2022/01/19 03:00:01;;;;;;;3.22;2.88;;;;;;;;;;5072898;28;20205;-81
2022/01/19 03:10:44;;;;;;;2.90;2.70;;;;;;;;;;5072973;28;20263;-80
2022/01/19 03:13:11;;;;;;;3.60;3.30;;;;;;;;;;5072938;28;20273;-80
2022/01/19 03:15:39;;;;;;;3.58;3.28;;;;;;;;;;5072527;28;20266;-80
2022/01/19 03:18:06;;;;;;;3.83;3.45;;;;;;;;;;5073049;28;20196;-80
2022/01/19 03:20:33;;;;;;;2.97;2.78;;;;;;;;;;5072231;28;20210;-80
2022/01/19 03:23:04;;;;;;;3.30;2.97;;;;;;;;;;5072459;28;20212;-80
2022/01/19 03:25:36;;;;;;;4.05;3.75;;;;;;;;;;5072896;28;20220;-81
2022/01/19 03:28:04;;;;;;;4.20;3.90;;;;;;;;;;5073579;28;20248;-81
2022/01/19 03:30:32;;;;;;;3.42;3.17;;;;;;;;;;5074204;28;20656;-80
2022/01/19 03:32:59;;;;;;;3.88;3.58;;;;;;;;;;5076326;28;20258;-80
2022/01/19 03:35:26;;;;;;;4.80;4.43;;;;;;;;;;5076130;28;20665;-80
2022/01/19 03:37:54;;;;;;;4.63;4.22;;;;;;;;;;5076485;28;20196;-82
2022/01/19 03:40:23;;;;;;;4.25;3.88;;;;;;;;;;5076581;28;20212;-80
2022/01/19 03:42:51;;;;;;;4.30;4.00;;;;;;;;;;5076605;28;20228;-82
2022/01/19 03:45:18;;;;;;;4.50;4.10;;;;;;;;;;5076031;28;20201;-80
2022/01/19 03:47:51;;;;;;;4.65;4.28;;;;;;;;;;5075893;28;20254;-81
2022/01/19 03:50:19;;;;;;;4.30;4.00;;;;;;;;;;5076722;28;20236;-81
2022/01/19 03:52:46;;;;;;;4.88;4.43;;;;;;;;;;5076716;28;20669;-81
2022/01/19 03:55:13;;;;;;;5.03;4.53;;;;;;;;;;5076524;28;20220;-80
2022/01/19 03:57:42;;;;;;;4.63;4.13;;;;;;;;;;5076374;28;20204;-81
2022/01/19 04:00:14;;;;;;;5.30;4.90;;;;;;;;;;5076571;28;20213;-81
2022/01/19 04:02:42;;;;;;;5.38;4.97;;;;;;;;;;5076306;28;20208;-80
2022/01/19 04:05:17;;;;;;;4.07;3.78;;;;;;;;;;5075493;28;20224;-80
2022/01/19 04:07:44;;;;;;;3.83;3.53;;;;;;;;;;5076252;28;20246;-82
2022/01/19 04:10:12;;;;;;;3.65;3.35;;;;;;;;;;5076328;28;20209;-80
2022/01/19 04:12:45;;;;;;;5.15;4.70;;;;;;;;;;5075583;28;20555;-81
2022/01/19 04:15:18;;;;;;;4.85;4.45;;;;;;;;;;5075115;28;20700;-80
2022/01/19 04:17:51;;;;;;;4.40;4.10;;;;;;;;;;5076195;28;20239;-80
2022/01/19 04:20:21;;;;;;;6.93;3.83;;;;;;;;;;5076315;28;20223;-81
2022/01/19 04:22:48;;;;;;;4.53;4.13;;;;;;;;;;5075779;28;20296;-82
2022/01/19 04:25:15;;;;;;;3.55;3.33;;;;;;;;;;5075962;28;20270;-80
2022/01/19 04:27:44;;;;;;;3.50;3.22;;;;;;;;;;5075421;28;20204;-80
2022/01/19 04:30:15;;;;;;;3.47;3.17;;;;;;;;;;5075614;28;20221;-82
2022/01/19 04:32:49;;;;;;;3.30;3.10;;;;;;;;;;5075889;28;20205;-81
2022/01/19 04:35:22;;;;;;;4.18;3.28;;;;;;;;;;5075709;28;20291;-82
2022/01/19 04:46:27;;;;;;;2.30;2.20;;;;;;;;;;5075485;28;20686;-80
2022/01/19 04:49:15;;;;;;;2.45;2.10;;;;;;;;;;5075102;28;20232;-80
2022/01/19 05:03:15;;;;;;;3.40;3.10;;;;;;;;;;5074675;28;20274;-81
2022/01/19 05:05:49;;;;;;;2.97;2.78;;;;;;;;;;5074801;28;20259;-80
2022/01/19 05:08:33;;;;;;;3.10;2.90;;;;;;;;;;5074717;28;20200;-81
2022/01/19 05:13:51;;;;;;;2.65;2.45;;;;;;;;;;5074447;28;20224;-80
2022/01/19 05:16:19;;;;;;;3.90;3.60;;;;;;;;;;5074882;28;20228;-80
2022/01/19 05:18:48;;;;;;;3.58;3.28;;;;;;;;;;5074682;28;20200;-80
2022/01/19 05:21:16;;;;;;;3.00;2.80;;;;;;;;;;5074781;28;20227;-80
2022/01/19 05:23:44;;;;;;;2.80;2.60;;;;;;;;;;5074321;28;20599;-80
2022/01/19 05:26:11;;;;;;;3.17;2.97;;;;;;;;;;5074376;28;20209;-80
2022/01/19 05:28:39;;;;;;;2.90;2.70;;;;;;;;;;5074700;28;20201;-80
2022/01/19 05:31:07;;;;;;;2.47;2.28;;;;;;;;;;5074408;28;20677;-81
2022/01/19 05:33:34;;;;;;;1.90;1.80;;;;;;;;;;5073853;28;20225;-80
2022/01/19 05:36:03;;;;;;;2.97;2.78;;;;;;;;;;5073939;28;20205;-79
2022/01/19 05:38:30;;;;;;;2.35;2.22;;;;;;;;;;5074200;28;20209;-81
2022/01/19 05:40:57;;;;;;;3.10;2.90;;;;;;;;;;5074266;28;20554;-80
2022/01/19 05:43:25;;;;;;;3.70;3.50;;;;;;;;;;5073814;28;20738;-80
2022/01/19 05:45:53;;;;;;;3.17;2.97;;;;;;;;;;5073693;28;20220;-79
2022/01/19 05:48:20;;;;;;;2.85;2.65;;;;;;;;;;5079234;28;20589;-82
2022/01/19 05:50:47;;;;;;;3.17;2.92;;;;;;;;;;5077903;28;20223;-83
2022/01/19 05:53:16;;;;;;;3.42;3.13;;;;;;;;;;5076983;28;20229;-82
2022/01/19 05:55:44;;;;;;;3.63;2.88;;;;;;;;;;5076250;28;20254;-82
2022/01/19 05:58:11;;;;;;;3.42;2.75;;;;;;;;;;5076226;28;20200;-83
2022/01/19 06:00:39;;;;;;;3.83;3.55;;;;;;;;;;5076578;28;20249;-82
2022/01/19 06:03:06;;;;;;;4.93;3.17;;;;;;;;;;5076337;28;20871;-82
2022/01/19 06:05:34;;;;;;;2.83;2.63;;;;;;;;;;5076319;28;20208;-81
2022/01/19 06:08:16;;;;;;;3.28;2.75;;;;;;;;;;5075535;28;20227;-82
2022/01/19 06:10:45;;;;;;;2.83;2.60;;;;;;;;;;5075020;28;20221;-82
2022/01/19 06:13:15;;;;;;;2.22;2.13;;;;;;;;;;5074845;28;20221;-82
2022/01/19 06:15:43;;;;;;;1.95;1.85;;;;;;;;;;5075335;28;20209;-82
2022/01/19 06:18:11;;;;;;;2.17;2.08;;;;;;;;;;5075744;28;20205;-82
2022/01/19 06:20:39;;;;;;;2.70;2.50;;;;;;;;;;5075163;28;20201;-82
2022/01/19 06:23:07;;;;;;;2.50;2.30;;;;;;;;;;5075316;28;20205;-82
2022/01/19 06:25:34;;;;;;;2.05;1.95;;;;;;;;;;5076926;28;20204;-82
2022/01/19 06:28:04;;;;;;;2.45;2.25;;;;;;;;;;5075248;28;20201;-82
2022/01/19 06:30:31;;;;;;;2.08;1.98;;;;;;;;;;5076731;28;20225;-82
2022/01/19 06:32:58;;;;;;;2.28;2.17;;;;;;;;;;5075787;28;20560;-82
2022/01/19 06:35:26;;;;;;;2.28;2.17;;;;;;;;;;5075794;28;20680;-82
2022/01/19 06:37:53;;;;;;;2.40;2.20;;;;;;;;;;5076568;28;20205;-82
2022/01/19 06:40:25;;;;;;;2.60;2.40;;;;;;;;;;5075973;28;20730;-82
2022/01/19 06:42:53;;;;;;;2.50;2.30;;;;;;;;;;5075682;28;20208;-82
2022/01/19 06:45:23;;;;;;;2.30;2.20;;;;;;;;;;5076014;28;20205;-82
2022/01/19 06:47:50;;;;;;;2.20;2.10;;;;;;;;;;5077177;28;20268;-82
2022/01/19 06:50:20;;;;;;;2.10;2.00;;;;;;;;;;5075555;28;20224;-82
2022/01/19 06:52:48;;;;;;;2.35;2.25;;;;;;;;;;5075415;28;20200;-82
2022/01/19 06:55:16;;;;;;;2.92;2.60;;;;;;;;;;5076268;28;20236;-83
2022/01/19 06:57:44;;;;;;;2.10;2.00;;;;;;;;;;5076662;28;20211;-82
2022/01/19 07:00:13;;;;;;;2.25;2.10;;;;;;;;;;5076318;28;20300;-82
2022/01/19 07:02:42;;;;;;;2.17;2.08;;;;;;;;;;5076263;28;20559;-83
2022/01/19 07:05:10;;;;;;;1.90;1.80;;;;;;;;;;5076508;28;20224;-83
2022/01/19 07:07:38;;;;;;;2.20;2.10;;;;;;;;;;5077126;28;20284;-82
2022/01/19 07:10:07;;;;;;;2.38;2.28;;;;;;;;;;5078790;28;20262;-82
2022/01/19 07:12:35;;;;;;;2.80;2.60;;;;;;;;;;5079156;28;20232;-83
2022/01/19 07:15:02;;;;;;;3.17;2.55;;;;;;;;;;5080089;28;20221;-82
2022/01/19 07:17:29;;;;;;;2.33;2.22;;;;;;;;;;5078594;28;20207;-81
2022/01/19 07:19:58;;;;;;;2.67;2.47;;;;;;;;;;5078796;28;20204;-81
2022/01/19 07:22:25;;;;;;;3.63;2.72;;;;;;;;;;5078195;28;20209;-82
2022/01/19 07:24:52;;;;;;;4.28;2.63;;;;;;;;;;5079444;28;20225;-82
2022/01/19 07:27:20;;;;;;;2.65;2.45;;;;;;;;;;5078656;28;20204;-82
2022/01/19 07:29:47;;;;;;;3.15;2.95;;;;;;;;;;5078653;28;20251;-81
2022/01/19 07:32:14;;;;;;;2.75;2.55;;;;;;;;;;5079223;28;20235;-82
2022/01/19 07:34:42;;;;;;;2.90;2.70;;;;;;;;;;5078762;28;20221;-82
2022/01/19 07:37:11;;;;;;;2.90;2.70;;;;;;;;;;5080077;28;20714;-82
2022/01/19 07:39:38;;;;;;;2.45;2.25;;;;;;;;;;5079038;28;20688;-81
2022/01/19 07:42:07;;;;;;;2.65;2.45;;;;;;;;;;5077362;28;20679;-82
2022/01/19 07:44:34;;;;;;;2.55;2.40;;;;;;;;;;5077290;28;20274;-83
2022/01/19 07:47:02;;;;;;;2.83;2.63;;;;;;;;;;5077001;28;20669;-82
2022/01/19 07:49:29;;;;;;;2.50;2.30;;;;;;;;;;5077623;28;20208;-82
2022/01/19 07:51:56;;;;;;;2.67;2.47;;;;;;;;;;5076454;28;20221;-82
2022/01/19 07:54:25;;;;;;;3.05;2.85;;;;;;;;;;5077122;28;20278;-82
2022/01/19 07:56:52;;;;;;;2.60;2.40;;;;;;;;;;5079370;28;20204;-83
2022/01/19 07:59:20;;;;;;;3.25;3.05;;;;;;;;;;5079424;28;20205;-82
2022/01/19 08:01:47;;;;;;;2.75;2.55;;;;;;;;;;5077280;28;20216;-83
2022/01/19 08:04:15;;;;;;;2.95;2.67;;;;;;;;;;5079709;28;20248;-83
2022/01/19 08:06:42;;;;;;;2.97;2.78;;;;;;;;;;5078033;28;20197;-84
2022/01/19 08:09:09;;;;;;;2.88;2.67;;;;;;;;;;5078763;28;20636;-83
2022/01/19 08:11:38;;;;;;;1.90;1.80;;;;;;;;;;5077229;28;20245;-82
2022/01/19 08:14:06;;;;;;;1.95;1.85;;;;;;;;;;5077663;28;20228;-83
2022/01/19 08:16:33;;;;;;;2.15;2.05;;;;;;;;;;5078032;28;20212;-83
2022/01/19 08:19:00;;;;;;;2.55;2.35;;;;;;;;;;5079758;28;20197;-84
2022/01/19 08:21:27;;;;;;;2.50;2.30;;;;;;;;;;5079130;28;20200;-83
2022/01/19 08:23:55;;;;;;;2.17;2.08;;;;;;;;;;5078583;28;20656;-84
2022/01/19 08:26:22;;;;;;;2.90;2.70;;;;;;;;;;5079341;28;20664;-83
2022/01/19 08:28:51;;;;;;;3.28;3.08;;;;;;;;;;5077949;28;20665;-83
2022/01/19 08:31:18;;;;;;;2.85;2.63;;;;;;;;;;5078135;28;20290;-83
2022/01/19 08:33:45;;;;;;;2.80;2.60;;;;;;;;;;5079529;28;20598;-83
2022/01/19 08:36:13;;;;;;;3.10;2.90;;;;;;;;;;5077267;28;20197;-83
2022/01/19 08:38:41;;;;;;;2.78;2.58;;;;;;;;;;5076806;28;20196;-83
2022/01/19 08:41:09;;;;;;;3.13;2.90;;;;;;;;;;5077963;28;20673;-83
2022/01/19 08:43:36;;;;;;;2.70;2.50;;;;;;;;;;5077331;28;20221;-85
2022/01/19 08:46:05;;;;;;;3.03;2.83;;;;;;;;;;5075925;28;20216;-84
2022/01/19 08:48:32;;;;;;;2.42;2.33;;;;;;;;;;5077380;28;20657;-83
2022/01/19 08:51:00;;;;;;;4.00;3.17;;;;;;;;;;5076113;28;20220;-82
2022/01/19 08:53:27;;;;;;;3.17;2.97;;;;;;;;;;5075477;28;20239;-83
2022/01/19 08:55:54;;;;;;;2.92;2.72;;;;;;;;;;5077607;28;20656;-84
2022/01/19 08:58:22;;;;;;;2.83;2.63;;;;;;;;;;5078484;28;20204;-85
2022/01/19 09:00:49;;;;;;;2.40;2.30;;;;;;;;;;5079453;28;20219;-83
2022/01/19 09:03:18;;;;;;;3.75;3.00;;;;;;;;;;5079042;28;20225;-83
2022/01/19 09:05:46;;;;;;;2.83;2.63;;;;;;;;;;5079461;28;20730;-84
2022/01/19 09:08:13;;;;;;;3.08;2.88;;;;;;;;;;5078202;28;20201;-84
2022/01/19 09:10:42;;;;;;;3.13;2.90;;;;;;;;;;5081458;28;20227;-84
2022/01/19 09:13:10;;;;;;;2.63;2.50;;;;;;;;;;5082923;28;20197;-82
2022/01/19 09:15:38;;;;;;;3.42;3.13;;;;;;;;;;5080024;28;20204;-83
2022/01/19 09:18:05;;;;;;;3.65;3.42;;;;;;;;;;5076673;28;20201;-84
2022/01/19 09:20:34;;;;;;;2.40;2.30;;;;;;;;;;5075185;28;20201;-83
2022/01/19 09:23:02;;;;;;;2.20;2.10;;;;;;;;;;5074842;28;20208;-82
2022/01/19 09:25:30;;;;;;;2.80;2.60;;;;;;;;;;5075411;28;20302;-82
2022/01/19 09:27:57;;;;;;;3.33;3.13;;;;;;;;;;5074125;28;20259;-82
2022/01/19 09:30:25;;;;;;;3.08;2.88;;;;;;;;;;5075714;28;20208;-83
2022/01/19 09:33:05;;;;;;;2.92;2.70;;;;;;;;;;5075029;28;20221;-83
2022/01/19 09:35:50;;;;;;;3.15;2.95;;;;;;;;;;5075723;28;20248;-83
2022/01/19 09:38:18;;;;;;;3.03;2.80;;;;;;;;;;5075254;28;20216;-82
2022/01/19 09:40:46;;;;;;;2.58;2.40;;;;;;;;;;5075138;28;20205;-83
2022/01/19 09:43:13;;;;;;;2.50;2.30;;;;;;;;;;5074443;28;20634;-83
2022/01/19 09:45:40;;;;;;;2.92;2.72;;;;;;;;;;5074402;28;20222;-83
2022/01/19 09:48:08;;;;;;;3.10;2.90;;;;;;;;;;5074491;28;20258;-83
2022/01/19 09:50:37;;;;;;;3.13;2.90;;;;;;;;;;5074029;28;20200;-83
2022/01/19 09:53:06;;;;;;;3.00;2.80;;;;;;;;;;5074030;28;20220;-84
2022/01/19 09:55:34;;;;;;;2.92;2.72;;;;;;;;;;5074338;28;20208;-83
2022/01/19 09:58:01;;;;;;;2.85;2.65;;;;;;;;;;5073998;28;20201;-83
2022/01/19 10:00:29;;;;;;;2.95;2.72;;;;;;;;;;5085781;28;20204;-83
2022/01/19 10:03:18;;;;;;;3.70;3.40;;;;;;;;;;5093692;28;20250;-82
2022/01/19 10:06:07;;;;;;;3.03;2.83;;;;;;;;;;5093095;28;20188;-83
2022/01/19 10:08:38;;;;;;;2.75;2.55;;;;;;;;;;5095335;28;20262;-82
2022/01/19 10:11:17;;;;;;;3.00;2.80;;;;;;;;;;5095706;28;20200;-86
2022/01/19 10:19:22;;;;;;;3.80;3.50;;;;;;;;;;5094256;28;20219;-84
2022/01/19 10:22:12;;;;;;;3.20;3.00;;;;;;;;;;5093286;28;20200;-84
2022/01/19 10:24:50;;;;;;;3.55;3.25;;;;;;;;;;5093824;28;20245;-83
2022/01/19 10:27:36;;;;;;;3.15;2.95;;;;;;;;;;5094187;28;20207;-83
2022/01/19 10:30:30;;;;;;;4.00;3.70;;;;;;;;;;5089080;28;20253;-83
2022/01/19 10:33:02;;;;;;;3.33;3.03;;;;;;;;;;5036890;28;20224;-82
2022/01/19 10:35:31;;;;;;;3.50;3.20;;;;;;;;;;5091137;28;20240;-83
2022/01/19 10:38:25;;;;;;;3.22;3.03;;;;;;;;;;5072752;28;20220;-82
2022/01/19 10:41:09;;;;;;;3.22;3.03;;;;;;;;;;5069327;28;20296;-82
2022/01/19 10:43:40;;;;;;;3.00;2.80;;;;;;;;;;5074750;28;20220;-86
2022/01/19 10:46:30;;;;;;;4.85;4.28;;;;;;;;;;5074770;28;20798;-84
2022/01/19 10:49:04;;;;;;;4.18;3.88;;;;;;;;;;5073584;28;20261;-84
2022/01/19 10:51:36;;;;;;;3.20;3.00;;;;;;;;;;5073545;28;20212;-85
2022/01/19 10:54:12;;;;;;;3.50;3.20;;;;;;;;;;5073416;28;20323;-82
2022/01/19 10:56:40;;;;;;;4.10;3.80;;;;;;;;;;5053412;28;20232;-83
2022/01/19 10:59:11;;;;;;;3.45;3.22;;;;;;;;;;5053314;28;20201;-84
2022/01/19 11:01:44;;;;;;;3.90;3.60;;;;;;;;;;5053315;28;20201;-84
2022/01/19 11:04:31;;;;;;;3.70;3.40;;;;;;;;;;5053305;28;20228;-84
2022/01/19 11:07:02;;;;;;;3.63;3.25;;;;;;;;;;5053372;28;20207;-83
2022/01/19 11:09:33;;;;;;;4.07;3.78;;;;;;;;;;5053366;28;20693;-83
2022/01/19 11:12:06;;;;;;;3.85;3.55;;;;;;;;;;5053349;28;20201;-83
2022/01/19 11:14:35;;;;;;;5.85;5.45;;;;;;;;;;5080153;28;20239;-83
2022/01/19 11:17:03;;;;;;;6.70;5.90;;;;;;;;;;5093383;28;20562;-84
2022/01/19 11:19:30;;;;;;;4.45;4.05;;;;;;;;;;5093250;28;20211;-83
2022/01/19 11:22:13;;;;;;;5.03;4.63;;;;;;;;;;5092861;28;20205;-84
2022/01/19 11:25:02;;;;;;;4.95;4.47;;;;;;;;;;5093510;28;20220;-83
2022/01/19 11:27:38;;;;;;;5.22;4.72;;;;;;;;;;5093277;28;20598;-83
2022/01/19 11:30:22;;;;;;;5.10;4.70;;;;;;;;;;5093043;28;20204;-83
2022/01/19 11:33:17;;;;;;;5.35;4.85;;;;;;;;;;5092712;28;20234;-83
2022/01/19 11:35:48;;;;;;;6.47;5.70;;;;;;;;;;5093277;28;20287;-83
2022/01/19 11:38:40;;;;;;;5.35;4.90;;;;;;;;;;5093164;28;20205;-83
2022/01/19 11:41:45;;;;;;;5.30;4.78;;;;;;;;;;5075858;28;20197;-84
2022/01/19 11:44:19;;;;;;;4.78;4.38;;;;;;;;;;5072511;28;20719;-83
2022/01/19 11:46:48;;;;;;;5.47;4.97;;;;;;;;;;5072638;28;20577;-83
2022/01/19 11:49:19;;;;;;;4.03;3.30;;;;;;;;;;5072813;28;20201;-83
2022/01/19 11:51:54;;;;;;;4.13;3.72;;;;;;;;;;5074558;28;20200;-84
2022/01/19 11:54:29;;;;;;;3.28;2.97;;;;;;;;;;5076850;28;20231;-83
2022/01/19 11:57:13;;;;;;;3.28;3.05;;;;;;;;;;5076316;28;20208;-83
2022/01/19 12:00:11;;;;;;;3.22;3.03;;;;;;;;;;5076241;28;20274;-83
2022/01/19 12:02:42;;;;;;;4.28;3.95;;;;;;;;;;5075985;28;20202;-83
2022/01/19 12:05:25;;;;;;;2.60;2.40;;;;;;;;;;5076286;28;20221;-84
2022/01/19 12:07:56;;;;;;;3.05;2.85;;;;;;;;;;5076164;28;20208;-83
2022/01/19 12:10:43;;;;;;;4.00;3.63;;;;;;;;;;5076251;28;20186;-84
2022/01/19 12:16:49;;;;;;;2.70;2.60;;;;;;;;;;5073076;28;20200;-84
2022/01/19 12:19:20;;;;;;;4.68;4.28;;;;;;;;;;5076802;28;20209;-84
2022/01/19 12:21:54;;;;;;;4.18;3.75;;;;;;;;;;5075892;28;20205;-84
2022/01/19 12:24:32;;;;;;;3.70;3.40;;;;;;;;;;5075169;28;20227;-84
2022/01/19 12:27:22;;;;;;;3.95;3.65;;;;;;;;;;5075352;28;20208;-84
2022/01/19 12:30:02;;;;;;;2.75;2.55;;;;;;;;;;5075727;28;20278;-83
2022/01/19 12:32:47;;;;;;;3.30;3.00;;;;;;;;;;5075631;28;20279;-82
2022/01/19 12:35:35;;;;;;;2.78;2.58;;;;;;;;;;5075335;28;20710;-83
2022/01/19 12:38:08;;;;;;;3.72;3.42;;;;;;;;;;5081591;28;20200;-82
2022/01/19 12:40:42;;;;;;;4.28;3.88;;;;;;;;;;5095878;28;20668;-83
2022/01/19 12:43:14;;;;;;;3.45;3.15;;;;;;;;;;5095127;28;20191;-82
2022/01/19 12:45:49;;;;;;;4.03;3.58;;;;;;;;;;5095517;28;20208;-83
2022/01/19 12:48:38;;;;;;;3.40;3.10;;;;;;;;;;5095778;28;20258;-83
2022/01/19 12:51:06;;;;;;;3.42;3.22;;;;;;;;;;5095864;28;20193;-83
2022/01/19 12:53:34;;;;;;;2.60;2.40;;;;;;;;;;5095326;28;20235;-83
2022/01/19 12:56:04;;;;;;;3.08;2.88;;;;;;;;;;5095003;28;20253;-83
2022/01/19 12:58:35;;;;;;;3.40;3.10;;;;;;;;;;5095798;28;20215;-83
2022/01/19 13:01:06;;;;;;;3.08;2.88;;;;;;;;;;5096359;28;20205;-83
2022/01/19 13:03:36;;;;;;;4.20;3.80;;;;;;;;;;5094677;28;20216;-83
2022/01/19 13:06:08;;;;;;;2.95;2.75;;;;;;;;;;5095748;28;20197;-83
2022/01/19 13:08:46;;;;;;;3.70;3.28;;;;;;;;;;5096050;28;20211;-83
2022/01/19 13:11:33;;;;;;;4.18;3.45;;;;;;;;;;5095800;28;20204;-85
2022/01/19 13:14:04;;;;;;;3.80;3.50;;;;;;;;;;5095561;28;20220;-83
2022/01/19 13:16:37;;;;;;;3.67;3.17;;;;;;;;;;5096386;28;20628;-84
2022/01/19 13:19:09;;;;;;;3.30;3.10;;;;;;;;;;5095768;28;20246;-83
2022/01/19 13:21:37;;;;;;;4.05;3.75;;;;;;;;;;5095481;28;20594;-83
2022/01/19 13:24:12;;;;;;;3.92;3.38;;;;;;;;;;5095378;28;20220;-83
2022/01/19 13:26:44;;;;;;;4.93;4.63;;;;;;;;;;5095085;28;20349;-83
2022/01/19 13:29:27;;;;;;;4.07;3.70;;;;;;;;;;5095329;28;20585;-83
2022/01/19 13:32:07;;;;;;;3.47;3.17;;;;;;;;;;5094869;28;20210;-83
2022/01/19 13:34:51;;;;;;;4.78;4.28;;;;;;;;;;5094839;28;20318;-82
2022/01/19 13:37:19;;;;;;;4.55;4.15;;;;;;;;;;5094771;28;20196;-83
2022/01/19 13:39:53;;;;;;;2.53;2.42;;;;;;;;;;5093396;28;20195;-83
2022/01/19 13:42:34;;;;;;;4.45;4.15;;;;;;;;;;5093472;28;20196;-84
2022/01/19 13:45:08;;;;;;;4.38;3.97;;;;;;;;;;5094711;28;20216;-83
2022/01/19 13:47:56;;;;;;;4.35;4.05;;;;;;;;;;5094858;28;20207;-83
2022/01/19 13:50:24;;;;;;;5.05;4.55;;;;;;;;;;5094711;28;20235;-83
2022/01/19 13:52:52;;;;;;;5.20;4.70;;;;;;;;;;5094204;28;20691;-83
2022/01/19 13:55:27;;;;;;;5.00;4.50;;;;;;;;;;5094247;28;20224;-82
2022/01/19 13:58:09;;;;;;;3.92;3.53;;;;;;;;;;5094239;28;20207;-82
2022/01/19 14:00:38;;;;;;;4.63;4.15;;;;;;;;;;5094400;28;20555;-83
2022/01/19 14:03:09;;;;;;;3.20;3.00;;;;;;;;;;5094246;28;20210;-83
2022/01/19 14:05:40;;;;;;;4.82;4.35;;;;;;;;;;5094346;28;20261;-82
2022/01/19 14:08:08;;;;;;;4.05;3.72;;;;;;;;;;5094152;28;20203;-83
2022/01/19 14:10:47;;;;;;;5.15;4.72;;;;;;;;;;5094588;28;20192;-84
2022/01/19 14:13:32;;;;;;;3.75;3.47;;;;;;;;;;5093823;28;20245;-83
2022/01/19 14:16:23;;;;;;;5.38;4.88;;;;;;;;;;5094188;28;20196;-84
2022/01/19 14:19:16;;;;;;;4.72;4.32;;;;;;;;;;5094148;28;20200;-84
2022/01/19 14:22:01;;;;;;;4.72;4.32;;;;;;;;;;5103946;22;20221;-84
2022/01/19 14:24:30;;;;;;;4.70;4.40;;;;;;;;;;5071361;28;20232;-83
2022/01/19 14:27:00;;;;;;;4.50;4.10;;;;;;;;;;5071217;28;20257;-87
2022/01/19 14:29:28;;;;;;;4.25;3.92;;;;;;;;;;5069115;28;20283;-84
2022/01/19 14:31:57;;;;;;;5.35;4.78;;;;;;;;;;5070871;28;20244;-84
2022/01/19 14:34:40;;;;;;;4.80;4.40;;;;;;;;;;5070236;28;20229;-84
2022/01/19 14:37:10;;;;;;;4.88;3.88;;;;;;;;;;5071802;28;20224;-82
2022/01/19 14:39:51;;;;;;;5.43;4.13;;;;;;;;;;5062511;28;20259;-86
2022/01/19 14:42:22;;;;;;;4.93;4.43;;;;;;;;;;5062139;28;20222;-87
2022/01/19 14:45:00;;;;;;;5.65;5.15;;;;;;;;;;5061291;28;20201;-84
2022/01/19 14:47:39;;;;;;;4.30;3.90;;;;;;;;;;5062590;28;20262;-84
2022/01/19 14:50:23;;;;;;;5.50;3.72;;;;;;;;;;5062532;28;20206;-87
2022/01/19 14:52:53;;;;;;;4.13;3.72;;;;;;;;;;5062536;28;20275;-86
2022/01/19 14:55:22;;;;;;;5.18;4.75;;;;;;;;;;5060548;28;20605;-86
2022/01/19 14:57:51;;;;;;;6.50;5.05;;;;;;;;;;5060586;28;20208;-85
2022/01/19 15:00:21;;;;;;;4.75;4.32;;;;;;;;;;5060192;28;20610;-87
2022/01/19 15:02:56;;;;;;;3.95;3.65;;;;;;;;;;5060063;28;20250;-86
2022/01/19 15:05:25;;;;;;;3.72;3.42;;;;;;;;;;5060358;28;20287;-85
2022/01/19 15:07:53;;;;;;;3.83;3.50;;;;;;;;;;5059320;28;20212;-83
2022/01/19 15:10:20;;;;;;;4.72;3.72;;;;;;;;;;5058479;28;20292;-88
2022/01/19 15:12:51;;;;;;;3.92;3.63;;;;;;;;;;5056930;28;20213;-87
2022/01/19 15:15:21;;;;;;;3.15;2.95;;;;;;;;;;5058502;28;20776;-86
2022/01/19 15:17:48;;;;;;;3.30;3.10;;;;;;;;;;5059047;28;20194;-86
2022/01/19 15:20:16;;;;;;;4.05;3.75;;;;;;;;;;5057211;28;20252;-87
2022/01/19 15:22:45;;;;;;;4.43;4.07;;;;;;;;;;5057141;28;20225;-87
2022/01/19 15:25:13;;;;;;;4.75;4.35;;;;;;;;;;5056846;28;20194;-86
2022/01/19 15:27:40;;;;;;;4.85;4.45;;;;;;;;;;5059561;28;20201;-86
2022/01/19 15:30:10;;;;;;;5.05;4.55;;;;;;;;;;5060772;28;20201;-86
2022/01/19 15:32:37;;;;;;;5.25;4.63;;;;;;;;;;5059725;28;20241;-85
2022/01/19 15:35:05;;;;;;;5.70;4.35;;;;;;;;;;5059949;28;20221;-87
2022/01/19 15:37:33;;;;;;;4.95;4.47;;;;;;;;;;5061626;28;20197;-86
2022/01/19 15:40:01;;;;;;;4.95;4.55;;;;;;;;;;5060036;28;20198;-86
2022/01/19 15:42:29;;;;;;;4.55;4.15;;;;;;;;;;5059315;28;20221;-86
2022/01/19 15:44:56;;;;;;;3.58;3.28;;;;;;;;;;5059376;28;20216;-85
2022/01/19 15:47:24;;;;;;;5.38;4.20;;;;;;;;;;5059134;28;20232;-86
2022/01/19 15:49:51;;;;;;;3.88;3.47;;;;;;;;;;5060091;28;20198;-87
2022/01/19 15:52:18;;;;;;;4.63;4.18;;;;;;;;;;5060125;28;20708;-86
2022/01/19 15:54:46;;;;;;;5.13;4.72;;;;;;;;;;5060379;28;20647;-87
2022/01/19 15:57:15;;;;;;;4.85;4.45;;;;;;;;;;5059226;28;20288;-86
2022/01/19 15:59:42;;;;;;;5.25;4.75;;;;;;;;;;5058591;28;20224;-86
2022/01/19 16:02:10;;;;;;;5.50;5.10;;;;;;;;;;5058542;28;20366;-85
2022/01/19 16:04:37;;;;;;;10.00;8.18;;;;;;;;;;5058845;28;20205;-85
2022/01/19 16:07:05;;;;;;;9.02;7.18;;;;;;;;;;5059735;28;20205;-86
2022/01/19 16:09:32;;;;;;;5.70;5.20;;;;;;;;;;5058852;28;20673;-86
2022/01/19 16:11:59;;;;;;;4.40;4.00;;;;;;;;;;5057982;28;20225;-85
2022/01/19 16:14:28;;;;;;;3.72;3.42;;;;;;;;;;5058766;28;20689;-86
2022/01/19 16:16:55;;;;;;;5.90;5.38;;;;;;;;;;5060272;28;20225;-86